Time;durP1;ratioP1;P1;durP2;ratioP2;P2;SDS_P1;SDS_P2;PMS_P1;PMS_P2;Temp;Humidity;BMP_temperature;BMP_pressure;BME280_temperature;BME280_humidity;BME280_pressure;Samples;Min_cycle;Max_cycle;Signal;HPM_P1;HPM_P2
2023/12/19 00:01:34;;;;;;;8.00;7.30;;;;;;;;;;5060183;28;20288;-79
2023/12/19 00:04:03;;;;;;;7.05;6.35;;;;;;;;;;5060831;28;20269;-79
2023/12/19 00:06:31;;;;;;;7.25;6.13;;;;;;;;;;5060305;28;20205;-80
2023/12/19 00:08:58;;;;;;;6.57;5.68;;;;;;;;;;5060981;28;20201;-80
2023/12/19 00:11:25;;;;;;;7.15;5.88;;;;;;;;;;5059914;28;20292;-79
2023/12/19 00:13:53;;;;;;;6.00;5.25;;;;;;;;;;5060079;28;20736;-80
2023/12/19 00:16:20;;;;;;;5.28;4.78;;;;;;;;;;5059917;28;20205;-80
2023/12/19 00:18:48;;;;;;;7.00;6.30;;;;;;;;;;5060280;28;20834;-80
2023/12/19 00:21:16;;;;;;;6.15;5.60;;;;;;;;;;5059867;28;20201;-79
2023/12/19 00:23:44;;;;;;;8.30;6.43;;;;;;;;;;5059909;28;20208;-79
2023/12/19 00:26:13;;;;;;;6.70;6.10;;;;;;;;;;5059492;28;20201;-80
2023/12/19 00:28:41;;;;;;;5.75;5.25;;;;;;;;;;5059598;28;20252;-80
2023/12/19 00:31:09;;;;;;;7.15;6.43;;;;;;;;;;5060036;28;20204;-79
2023/12/19 00:33:36;;;;;;;5.85;5.28;;;;;;;;;;5059906;28;20252;-80
2023/12/19 00:36:04;;;;;;;5.97;5.38;;;;;;;;;;5059684;28;20749;-79
2023/12/19 00:38:33;;;;;;;6.07;5.47;;;;;;;;;;5060208;28;20258;-80
2023/12/19 00:41:00;;;;;;;7.25;5.82;;;;;;;;;;5059662;28;20551;-79
2023/12/19 00:43:27;;;;;;;6.38;5.63;;;;;;;;;;5061303;28;20208;-77
2023/12/19 00:45:55;;;;;;;7.60;6.80;;;;;;;;;;5063755;28;20208;-79
2023/12/19 00:48:23;;;;;;;10.75;8.45;;;;;;;;;;5064002;28;20225;-80
2023/12/19 00:50:51;;;;;;;12.60;9.25;;;;;;;;;;5063557;28;20205;-80
2023/12/19 00:53:18;;;;;;;10.07;7.88;;;;;;;;;;5063736;28;20706;-79
2023/12/19 00:55:47;;;;;;;9.68;8.48;;;;;;;;;;5063059;28;20316;-78
2023/12/19 00:58:14;;;;;;;8.98;7.68;;;;;;;;;;5062792;28;20289;-79
2023/12/19 01:00:42;;;;;;;7.88;6.35;;;;;;;;;;5063620;28;20658;-79
2023/12/19 01:03:09;;;;;;;9.57;6.30;;;;;;;;;;5062849;28;20207;-79
2023/12/19 01:05:37;;;;;;;11.20;8.93;;;;;;;;;;5062824;28;20284;-80
2023/12/19 01:08:05;;;;;;;7.90;6.95;;;;;;;;;;5063103;28;20709;-78
2023/12/19 01:10:32;;;;;;;12.40;9.88;;;;;;;;;;5063421;28;20237;-78
2023/12/19 01:13:01;;;;;;;9.23;7.25;;;;;;;;;;5063205;28;20208;-79
2023/12/19 01:15:28;;;;;;;7.97;7.00;;;;;;;;;;5062780;28;20221;-80
2023/12/19 01:17:56;;;;;;;8.15;6.78;;;;;;;;;;5063428;28;20222;-80
2023/12/19 01:20:23;;;;;;;8.60;7.70;;;;;;;;;;5062963;28;20238;-78
2023/12/19 01:22:51;;;;;;;8.43;7.32;;;;;;;;;;5062838;28;20205;-80
2023/12/19 01:25:18;;;;;;;8.25;7.20;;;;;;;;;;5063393;28;20221;-79
2023/12/19 01:27:46;;;;;;;9.30;7.97;;;;;;;;;;5063011;28;20313;-80
2023/12/19 01:30:15;;;;;;;8.57;7.72;;;;;;;;;;5062237;28;20669;-79
2023/12/19 01:32:43;;;;;;;11.75;9.02;;;;;;;;;;5062956;28;20746;-80
2023/12/19 01:35:11;;;;;;;9.43;7.68;;;;;;;;;;5062841;28;20218;-80
2023/12/19 01:37:38;;;;;;;7.43;6.72;;;;;;;;;;5062449;28;20290;-80
2023/12/19 01:40:08;;;;;;;9.68;8.55;;;;;;;;;;5062495;28;20208;-80
2023/12/19 01:42:36;;;;;;;12.25;9.57;;;;;;;;;;5062494;28;20193;-79
2023/12/19 01:45:10;;;;;;;9.50;7.63;;;;;;;;;;5063043;28;20266;-80
2023/12/19 01:47:41;;;;;;;8.45;7.47;;;;;;;;;;5062907;28;20579;-79
2023/12/19 01:50:09;;;;;;;8.18;7.18;;;;;;;;;;5063268;28;20202;-80
2023/12/19 01:52:37;;;;;;;7.13;5.97;;;;;;;;;;5063513;28;20201;-80
2023/12/19 01:55:06;;;;;;;6.65;5.85;;;;;;;;;;5062721;28;20304;-78
2023/12/19 01:57:34;;;;;;;8.23;7.28;;;;;;;;;;5062608;28;20304;-80
2023/12/19 02:00:01;;;;;;;9.52;8.35;;;;;;;;;;5061728;28;20265;-78
2023/12/19 02:02:29;;;;;;;9.77;8.68;;;;;;;;;;5062164;28;20198;-79
2023/12/19 02:04:59;;;;;;;8.88;7.53;;;;;;;;;;5062384;28;20198;-79
2023/12/19 02:07:26;;;;;;;9.13;8.02;;;;;;;;;;5061726;28;20228;-80
2023/12/19 02:09:54;;;;;;;9.90;8.20;;;;;;;;;;5062130;28;20292;-80
2023/12/19 02:12:22;;;;;;;9.13;7.50;;;;;;;;;;5062083;28;20211;-79
2023/12/19 02:14:50;;;;;;;5.90;5.35;;;;;;;;;;5062155;28;20273;-79
2023/12/19 02:17:18;;;;;;;6.65;5.65;;;;;;;;;;5061889;28;20732;-80
2023/12/19 02:19:46;;;;;;;8.05;7.22;;;;;;;;;;5061652;28;20716;-79
2023/12/19 02:22:15;;;;;;;8.25;6.70;;;;;;;;;;5062387;28;20613;-80
2023/12/19 02:24:44;;;;;;;7.80;7.00;;;;;;;;;;5062363;28;20284;-80
2023/12/19 02:27:13;;;;;;;9.20;7.43;;;;;;;;;;5062208;28;20218;-79
2023/12/19 02:29:40;;;;;;;8.05;6.63;;;;;;;;;;5061609;28;20572;-80
2023/12/19 02:32:08;;;;;;;8.60;6.68;;;;;;;;;;5062092;28;20197;-79
2023/12/19 02:34:36;;;;;;;8.05;6.78;;;;;;;;;;5062251;28;20205;-79
2023/12/19 02:37:04;;;;;;;8.68;7.82;;;;;;;;;;5061395;28;20222;-79
2023/12/19 02:39:31;;;;;;;9.07;7.60;;;;;;;;;;5061404;28;20580;-80
2023/12/19 02:42:00;;;;;;;10.25;9.10;;;;;;;;;;5060749;28;20197;-80
2023/12/19 02:44:27;;;;;;;7.78;6.97;;;;;;;;;;5061278;28;20202;-81
2023/12/19 02:46:55;;;;;;;8.43;7.63;;;;;;;;;;5060830;28;20312;-80
2023/12/19 02:49:22;;;;;;;7.43;6.55;;;;;;;;;;5061306;28;20208;-80
2023/12/19 02:51:50;;;;;;;8.82;7.45;;;;;;;;;;5062317;28;20296;-79
2023/12/19 02:54:18;;;;;;;7.72;7.03;;;;;;;;;;5061912;28;20206;-80
2023/12/19 02:56:45;;;;;;;9.63;8.60;;;;;;;;;;5061457;28;20230;-80
2023/12/19 02:59:14;;;;;;;9.25;8.07;;;;;;;;;;5061033;28;20658;-79
2023/12/19 03:01:45;;;;;;;9.68;7.65;;;;;;;;;;5060403;28;20202;-79
2023/12/19 03:04:13;;;;;;;11.27;8.60;;;;;;;;;;5060647;28;20253;-79
2023/12/19 03:06:40;;;;;;;9.90;8.38;;;;;;;;;;5060141;28;20308;-79
2023/12/19 03:09:08;;;;;;;10.10;8.93;;;;;;;;;;5060713;28;20721;-79
2023/12/19 03:11:38;;;;;;;10.27;8.90;;;;;;;;;;5060269;28;20613;-80
2023/12/19 03:14:05;;;;;;;10.10;8.80;;;;;;;;;;5060909;28;20205;-80
2023/12/19 03:16:35;;;;;;;12.38;9.20;;;;;;;;;;5060313;28;20312;-80
2023/12/19 03:19:02;;;;;;;11.77;9.70;;;;;;;;;;5060038;28;20650;-79
2023/12/19 03:21:30;;;;;;;12.07;10.35;;;;;;;;;;5060033;28;20212;-80
2023/12/19 03:23:57;;;;;;;12.57;10.15;;;;;;;;;;5060199;28;20212;-79
2023/12/19 03:26:25;;;;;;;11.25;9.77;;;;;;;;;;5059759;28;20203;-80
2023/12/19 03:28:52;;;;;;;10.70;8.98;;;;;;;;;;5059367;28;20202;-80
2023/12/19 03:31:19;;;;;;;11.98;10.52;;;;;;;;;;5059701;28;20201;-80
2023/12/19 03:33:48;;;;;;;14.73;10.63;;;;;;;;;;5059655;28;20211;-79
2023/12/19 03:36:16;;;;;;;10.48;9.30;;;;;;;;;;5059936;28;20248;-80
2023/12/19 03:38:44;;;;;;;11.20;9.77;;;;;;;;;;5060235;28;20204;-79
2023/12/19 03:41:11;;;;;;;10.65;9.30;;;;;;;;;;5059344;28;20204;-79
2023/12/19 03:43:38;;;;;;;12.27;10.05;;;;;;;;;;5059641;28;20205;-79
2023/12/19 03:46:07;;;;;;;12.73;9.35;;;;;;;;;;5059133;28;20206;-80
2023/12/19 03:48:35;;;;;;;12.45;9.43;;;;;;;;;;5059597;28;20248;-79
2023/12/19 03:51:04;;;;;;;9.93;8.82;;;;;;;;;;5059576;28;20205;-78
2023/12/19 03:53:32;;;;;;;11.45;9.20;;;;;;;;;;5060187;28;20293;-80
2023/12/19 03:55:59;;;;;;;11.98;10.07;;;;;;;;;;5059441;28;20638;-80
2023/12/19 03:58:27;;;;;;;10.32;8.77;;;;;;;;;;5059808;28;20288;-79
2023/12/19 04:00:54;;;;;;;13.20;10.30;;;;;;;;;;5059900;28;20205;-78
2023/12/19 04:03:22;;;;;;;11.25;9.00;;;;;;;;;;5059526;28;20570;-79
2023/12/19 04:05:49;;;;;;;13.15;10.15;;;;;;;;;;5059972;28;20225;-80
2023/12/19 04:08:18;;;;;;;12.30;10.45;;;;;;;;;;5059641;28;20230;-80
2023/12/19 04:10:45;;;;;;;10.38;9.27;;;;;;;;;;5059917;28;20207;-79
2023/12/19 04:13:13;;;;;;;15.30;10.45;;;;;;;;;;5060276;28;20273;-80
2023/12/19 04:15:40;;;;;;;13.25;11.25;;;;;;;;;;5059640;28;20304;-79
2023/12/19 04:18:09;;;;;;;10.18;9.13;;;;;;;;;;5060685;28;20225;-80
2023/12/19 04:20:36;;;;;;;11.00;8.82;;;;;;;;;;5064333;28;20289;-80
2023/12/19 04:23:04;;;;;;;17.05;10.80;;;;;;;;;;5064044;28;20205;-80
2023/12/19 04:25:33;;;;;;;11.98;9.80;;;;;;;;;;5063525;28;20206;-79
2023/12/19 04:28:00;;;;;;;12.38;9.73;;;;;;;;;;5063740;28;20221;-80
2023/12/19 04:30:28;;;;;;;13.18;10.15;;;;;;;;;;5063907;28;20228;-80
2023/12/19 04:32:55;;;;;;;11.10;9.30;;;;;;;;;;5063781;28;20269;-79
2023/12/19 04:35:23;;;;;;;12.38;9.50;;;;;;;;;;5063311;28;20208;-80
2023/12/19 04:37:50;;;;;;;13.38;9.43;;;;;;;;;;5062616;28;20236;-80
2023/12/19 04:40:18;;;;;;;10.88;9.70;;;;;;;;;;5063278;28;20666;-79
2023/12/19 04:42:46;;;;;;;11.15;9.63;;;;;;;;;;5062656;28;20662;-80
2023/12/19 04:45:14;;;;;;;10.73;9.20;;;;;;;;;;5062948;28;20674;-80
2023/12/19 04:47:41;;;;;;;14.50;10.98;;;;;;;;;;5062515;28;20218;-78
2023/12/19 04:50:09;;;;;;;14.00;10.35;;;;;;;;;;5063221;28;20288;-80
2023/12/19 04:52:38;;;;;;;15.15;10.55;;;;;;;;;;5063004;28;20210;-79
2023/12/19 04:55:06;;;;;;;12.48;9.85;;;;;;;;;;5063155;28;20607;-80
2023/12/19 04:57:34;;;;;;;15.38;11.13;;;;;;;;;;5062454;28;20313;-79
2023/12/19 05:00:04;;;;;;;12.80;10.00;;;;;;;;;;5063969;28;20198;-78
2023/12/19 05:02:32;;;;;;;14.65;10.63;;;;;;;;;;5061925;28;20198;-78
2023/12/19 05:04:59;;;;;;;12.20;10.77;;;;;;;;;;5062910;28;20208;-80
2023/12/19 05:07:27;;;;;;;13.07;9.88;;;;;;;;;;5062818;28;20280;-79
2023/12/19 05:09:54;;;;;;;14.60;11.15;;;;;;;;;;5062834;28;20201;-79
2023/12/19 05:12:23;;;;;;;11.38;9.25;;;;;;;;;;5061943;28;20211;-80
2023/12/19 05:14:51;;;;;;;12.50;9.45;;;;;;;;;;5062335;28;20202;-80
2023/12/19 05:17:20;;;;;;;14.63;11.43;;;;;;;;;;5062276;28;20724;-79
2023/12/19 05:19:47;;;;;;;11.75;10.27;;;;;;;;;;5062804;28;20685;-80
2023/12/19 05:22:15;;;;;;;12.88;11.32;;;;;;;;;;5062263;28;20229;-79
2023/12/19 05:24:43;;;;;;;15.18;12.57;;;;;;;;;;5062433;28;20572;-79
2023/12/19 05:27:10;;;;;;;14.68;12.05;;;;;;;;;;5062095;28;20240;-80
2023/12/19 05:29:38;;;;;;;12.90;10.38;;;;;;;;;;5061751;28;20288;-80
2023/12/19 05:32:06;;;;;;;12.63;11.13;;;;;;;;;;5062458;28;20201;-80
2023/12/19 05:34:35;;;;;;;16.60;11.40;;;;;;;;;;5062208;28;20244;-79
2023/12/19 05:37:03;;;;;;;10.52;9.27;;;;;;;;;;5062269;28;20784;-80
2023/12/19 05:39:31;;;;;;;13.48;11.20;;;;;;;;;;5062281;28;20259;-80
2023/12/19 05:41:58;;;;;;;14.98;12.02;;;;;;;;;;5062157;28;20202;-81
2023/12/19 05:44:26;;;;;;;16.38;12.13;;;;;;;;;;5061095;28;20206;-80
2023/12/19 05:46:54;;;;;;;15.27;11.60;;;;;;;;;;5061854;28;20228;-80
2023/12/19 05:49:22;;;;;;;13.98;11.55;;;;;;;;;;5061418;28;20308;-80
2023/12/19 05:51:51;;;;;;;14.40;10.75;;;;;;;;;;5062065;28;20269;-79
2023/12/19 05:54:18;;;;;;;15.15;10.82;;;;;;;;;;5062514;28;20206;-80
2023/12/19 05:56:45;;;;;;;16.30;11.73;;;;;;;;;;5062134;28;20225;-80
2023/12/19 05:59:13;;;;;;;14.95;11.50;;;;;;;;;;5061411;28;20320;-79
2023/12/19 06:01:43;;;;;;;12.02;9.10;;;;;;;;;;5061323;28;20523;-79
2023/12/19 06:04:11;;;;;;;16.10;11.55;;;;;;;;;;5061126;28;20208;-79
2023/12/19 06:06:42;;;;;;;12.82;10.25;;;;;;;;;;5061068;28;20309;-80
2023/12/19 06:09:12;;;;;;;12.38;10.45;;;;;;;;;;5061588;28;20182;-80
2023/12/19 06:11:40;;;;;;;14.98;10.82;;;;;;;;;;5061459;28;20196;-80
2023/12/19 06:14:08;;;;;;;13.57;10.85;;;;;;;;;;5061612;28;20288;-80
2023/12/19 06:16:36;;;;;;;15.52;11.38;;;;;;;;;;5060396;28;20213;-80
2023/12/19 06:19:05;;;;;;;14.38;10.45;;;;;;;;;;5061178;28;20221;-79
2023/12/19 06:21:32;;;;;;;15.23;11.25;;;;;;;;;;5061402;28;20212;-81
2023/12/19 06:24:00;;;;;;;14.10;11.75;;;;;;;;;;5061115;28;20213;-80
2023/12/19 06:26:29;;;;;;;13.15;10.27;;;;;;;;;;5061215;28;20208;-80
2023/12/19 06:28:56;;;;;;;11.57;10.13;;;;;;;;;;5060970;28;20197;-80
2023/12/19 06:31:23;;;;;;;15.23;12.05;;;;;;;;;;5060138;28;20290;-80
2023/12/19 06:33:51;;;;;;;12.27;10.18;;;;;;;;;;5060162;28;20208;-80
2023/12/19 06:36:31;;;;;;;11.93;9.40;;;;;;;;;;5060545;28;20205;-80
2023/12/19 06:39:00;;;;;;;13.27;10.65;;;;;;;;;;5061293;28;20221;-80
2023/12/19 06:41:28;;;;;;;12.73;9.40;;;;;;;;;;5060302;28;20301;-80
2023/12/19 06:43:56;;;;;;;12.32;9.60;;;;;;;;;;5060500;28;20212;-80
2023/12/19 06:46:24;;;;;;;13.77;10.77;;;;;;;;;;5061671;28;20233;-79
2023/12/19 06:48:51;;;;;;;15.13;10.05;;;;;;;;;;5061269;28;20202;-80
2023/12/19 06:51:25;;;;;;;9.63;8.52;;;;;;;;;;5061097;28;20220;-80
2023/12/19 06:53:54;;;;;;;9.27;7.60;;;;;;;;;;5061089;28;20293;-80
2023/12/19 06:56:26;;;;;;;11.52;8.45;;;;;;;;;;5061006;28;20235;-78
2023/12/19 06:58:55;;;;;;;8.60;7.55;;;;;;;;;;5061863;28;20206;-80
2023/12/19 07:01:24;;;;;;;9.73;8.43;;;;;;;;;;5061767;28;20666;-79
2023/12/19 07:03:51;;;;;;;10.20;8.52;;;;;;;;;;5061342;28;20232;-79
2023/12/19 07:06:19;;;;;;;9.48;7.70;;;;;;;;;;5061170;28;20292;-80
2023/12/19 07:08:46;;;;;;;8.77;7.55;;;;;;;;;;5061215;28;20571;-80
2023/12/19 07:11:14;;;;;;;7.55;6.85;;;;;;;;;;5061671;28;20292;-80
2023/12/19 07:13:42;;;;;;;7.95;6.90;;;;;;;;;;5061351;28;20229;-79
2023/12/19 07:16:15;;;;;;;9.05;7.53;;;;;;;;;;5061331;28;20244;-80
2023/12/19 07:18:43;;;;;;;8.82;7.38;;;;;;;;;;5060688;28;20764;-79
2023/12/19 07:21:20;;;;;;;8.82;6.60;;;;;;;;;;5060554;28;20626;-79
2023/12/19 07:23:48;;;;;;;7.18;6.45;;;;;;;;;;5061782;28;20201;-80
2023/12/19 07:26:26;;;;;;;7.18;5.63;;;;;;;;;;5060785;28;20201;-79
2023/12/19 07:28:57;;;;;;;8.98;7.47;;;;;;;;;;5061353;28;20177;-80
2023/12/19 07:31:27;;;;;;;9.23;7.10;;;;;;;;;;5060430;28;20654;-78
2023/12/19 07:33:57;;;;;;;8.68;7.10;;;;;;;;;;5060989;28;20192;-78
2023/12/19 07:36:24;;;;;;;10.07;8.25;;;;;;;;;;5060122;28;20293;-80
2023/12/19 07:38:52;;;;;;;13.43;11.45;;;;;;;;;;5059983;28;20257;-79
2023/12/19 07:41:20;;;;;;;11.82;10.50;;;;;;;;;;5060147;28;20240;-79
2023/12/19 07:43:48;;;;;;;12.18;9.68;;;;;;;;;;5060118;28;20227;-79
2023/12/19 07:46:16;;;;;;;11.57;9.40;;;;;;;;;;5061195;28;20292;-79
2023/12/19 07:48:44;;;;;;;13.80;11.02;;;;;;;;;;5060014;28;20538;-79
2023/12/19 07:51:17;;;;;;;13.15;10.32;;;;;;;;;;5059841;28;20209;-79
2023/12/19 07:53:44;;;;;;;13.35;8.98;;;;;;;;;;5060571;28;20197;-79
2023/12/19 07:56:11;;;;;;;8.70;7.55;;;;;;;;;;5060499;28;20216;-79
2023/12/19 07:58:39;;;;;;;9.23;7.57;;;;;;;;;;5060015;28;20230;-79
2023/12/19 08:01:10;;;;;;;10.68;9.27;;;;;;;;;;5059149;28;20198;-80
2023/12/19 08:03:37;;;;;;;8.35;7.47;;;;;;;;;;5060413;28;20217;-79
2023/12/19 08:06:07;;;;;;;9.30;5.65;;;;;;;;;;5060186;28;20205;-80
2023/12/19 08:08:34;;;;;;;6.40;5.70;;;;;;;;;;5060647;28;20224;-79
2023/12/19 08:11:02;;;;;;;7.63;5.63;;;;;;;;;;5060520;28;20700;-79
2023/12/19 08:13:29;;;;;;;5.68;4.75;;;;;;;;;;5059930;28;20269;-79
2023/12/19 08:15:57;;;;;;;6.88;5.68;;;;;;;;;;5060757;28;20298;-78
2023/12/19 08:18:24;;;;;;;4.95;4.13;;;;;;;;;;5059646;28;20225;-79
2023/12/19 08:20:52;;;;;;;5.03;4.60;;;;;;;;;;5060272;28;20205;-80
2023/12/19 08:23:20;;;;;;;4.82;4.10;;;;;;;;;;5059049;28;20205;-78
2023/12/19 08:25:48;;;;;;;4.63;4.13;;;;;;;;;;5059028;28;20201;-79
2023/12/19 08:28:15;;;;;;;4.57;4.18;;;;;;;;;;5058290;28;20293;-81
2023/12/19 08:30:43;;;;;;;5.20;4.70;;;;;;;;;;5058459;28;20202;-80
2023/12/19 08:33:10;;;;;;;4.20;3.80;;;;;;;;;;5058771;28;20202;-80
2023/12/19 08:35:38;;;;;;;4.95;4.45;;;;;;;;;;5058552;28;20208;-80
2023/12/19 08:38:05;;;;;;;5.30;4.80;;;;;;;;;;5058370;28;20243;-79
2023/12/19 08:40:34;;;;;;;4.93;4.00;;;;;;;;;;5059463;28;20225;-80
2023/12/19 08:43:02;;;;;;;4.25;3.85;;;;;;;;;;5060204;28;20219;-79
2023/12/19 08:45:29;;;;;;;3.38;3.08;;;;;;;;;;5060285;28;20292;-80
2023/12/19 08:47:56;;;;;;;4.43;4.03;;;;;;;;;;5059917;28;20289;-80
2023/12/19 08:50:24;;;;;;;4.13;3.72;;;;;;;;;;5058534;28;20281;-79
2023/12/19 08:52:53;;;;;;;3.42;3.13;;;;;;;;;;5058556;28;20197;-79
2023/12/19 08:55:20;;;;;;;3.20;2.90;;;;;;;;;;5058507;28;20209;-79
2023/12/19 08:57:50;;;;;;;5.20;4.70;;;;;;;;;;5058900;28;20228;-77
2023/12/19 09:00:21;;;;;;;4.22;3.75;;;;;;;;;;5058673;28;20249;-79
2023/12/19 09:02:49;;;;;;;4.45;3.75;;;;;;;;;;5058957;28;20182;-79
2023/12/19 09:05:18;;;;;;;3.88;3.58;;;;;;;;;;5061680;28;20225;-80
2023/12/19 09:07:47;;;;;;;4.10;3.75;;;;;;;;;;5062699;28;20583;-80
2023/12/19 09:10:16;;;;;;;4.22;3.75;;;;;;;;;;5062665;28;20197;-79
2023/12/19 09:12:44;;;;;;;4.10;3.72;;;;;;;;;;5062479;28;20209;-79
2023/12/19 09:15:13;;;;;;;3.72;3.35;;;;;;;;;;5062495;28;20265;-79
2023/12/19 09:17:41;;;;;;;3.40;3.10;;;;;;;;;;5062623;28;20245;-84
2023/12/19 09:20:10;;;;;;;3.40;3.10;;;;;;;;;;5061887;28;20293;-79
2023/12/19 09:22:37;;;;;;;3.30;3.00;;;;;;;;;;5062417;28;20269;-79
2023/12/19 09:25:13;;;;;;;4.80;3.50;;;;;;;;;;5062333;28;20288;-78
2023/12/19 09:27:41;;;;;;;3.30;3.00;;;;;;;;;;5062353;28;20231;-80
2023/12/19 09:30:10;;;;;;;4.38;3.33;;;;;;;;;;5061344;28;20292;-80
2023/12/19 09:32:41;;;;;;;3.42;2.80;;;;;;;;;;5060277;28;20289;-79
2023/12/19 09:35:10;;;;;;;3.47;3.17;;;;;;;;;;5061140;28;20277;-77
2023/12/19 09:37:38;;;;;;;2.60;2.40;;;;;;;;;;5058339;28;20304;-78
2023/12/19 09:40:12;;;;;;;2.75;2.55;;;;;;;;;;5061407;28;20229;-79
2023/12/19 09:42:40;;;;;;;3.13;2.83;;;;;;;;;;5062087;28;20190;-79
2023/12/19 09:45:08;;;;;;;2.40;2.20;;;;;;;;;;5062472;28;20730;-79
2023/12/19 09:47:42;;;;;;;3.45;3.10;;;;;;;;;;5062062;28;20260;-79
2023/12/19 09:50:14;;;;;;;2.97;2.67;;;;;;;;;;5060380;28;20198;-79
2023/12/19 09:52:43;;;;;;;2.60;2.40;;;;;;;;;;5062066;28;20186;-79
2023/12/19 09:55:12;;;;;;;3.03;2.83;;;;;;;;;;5062663;28;20201;-78
2023/12/19 09:57:40;;;;;;;2.65;2.45;;;;;;;;;;5061950;28;20228;-78
2023/12/19 10:00:11;;;;;;;3.58;2.28;;;;;;;;;;5062386;28;20225;-79
2023/12/19 10:02:41;;;;;;;2.65;2.42;;;;;;;;;;5061368;28;20623;-80
2023/12/19 10:05:10;;;;;;;3.22;3.03;;;;;;;;;;5061257;28;20208;-79
2023/12/19 10:07:38;;;;;;;2.90;2.60;;;;;;;;;;5061335;28;20221;-79
2023/12/19 10:10:07;;;;;;;2.92;2.45;;;;;;;;;;5061266;28;20200;-79
2023/12/19 10:12:34;;;;;;;2.70;2.50;;;;;;;;;;5060708;28;20209;-79
2023/12/19 10:15:12;;;;;;;3.00;2.72;;;;;;;;;;5060365;28;20288;-79
2023/12/19 10:17:41;;;;;;;2.33;2.22;;;;;;;;;;5061669;28;20730;-79
2023/12/19 10:20:13;;;;;;;2.50;2.30;;;;;;;;;;5060927;28;20304;-79
2023/12/19 10:22:41;;;;;;;2.58;2.38;;;;;;;;;;5060584;28;20289;-79
2023/12/19 10:25:09;;;;;;;2.53;2.10;;;;;;;;;;5060611;28;20208;-79
2023/12/19 10:27:36;;;;;;;2.42;2.20;;;;;;;;;;5061361;28;20227;-79
2023/12/19 10:30:18;;;;;;;2.60;2.40;;;;;;;;;;5060647;28;20549;-78
2023/12/19 10:32:47;;;;;;;3.05;2.72;;;;;;;;;;5061165;28;20631;-78
2023/12/19 10:35:15;;;;;;;3.95;2.97;;;;;;;;;;5060786;28;20269;-79
2023/12/19 10:37:45;;;;;;;2.72;2.53;;;;;;;;;;5061396;28;20263;-80
2023/12/19 10:40:19;;;;;;;2.47;2.28;;;;;;;;;;5061408;28;20202;-79
2023/12/19 10:42:56;;;;;;;2.70;2.50;;;;;;;;;;5061171;28;20206;-78
2023/12/19 10:45:24;;;;;;;3.42;2.45;;;;;;;;;;5061188;28;20692;-80
2023/12/19 10:47:53;;;;;;;3.45;3.00;;;;;;;;;;5060586;28;20222;-79
2023/12/19 10:50:20;;;;;;;2.70;2.50;;;;;;;;;;5060915;28;20289;-80
2023/12/19 10:52:51;;;;;;;2.83;2.63;;;;;;;;;;5060033;28;20201;-78
2023/12/19 10:55:21;;;;;;;3.67;2.40;;;;;;;;;;5060782;28;20204;-79
2023/12/19 10:57:51;;;;;;;2.90;2.60;;;;;;;;;;5059895;28;20225;-79
2023/12/19 11:00:22;;;;;;;3.00;2.78;;;;;;;;;;5060567;28;20218;-80
2023/12/19 11:03:05;;;;;;;3.03;2.75;;;;;;;;;;5060457;28;20185;-79
2023/12/19 11:05:40;;;;;;;3.22;2.90;;;;;;;;;;5060644;28;20185;-79
2023/12/19 11:08:15;;;;;;;3.15;2.85;;;;;;;;;;5060508;28;20252;-78
2023/12/19 11:10:54;;;;;;;2.90;2.67;;;;;;;;;;5060534;28;20182;-78
2023/12/19 11:13:24;;;;;;;3.30;3.00;;;;;;;;;;5060423;28;20189;-78
2023/12/19 11:15:59;;;;;;;2.78;2.58;;;;;;;;;;5060472;28;20220;-79
2023/12/19 11:18:32;;;;;;;3.22;2.92;;;;;;;;;;5060452;28;20257;-77
2023/12/19 11:21:05;;;;;;;3.17;2.88;;;;;;;;;;5059998;28;20292;-78
2023/12/19 11:23:43;;;;;;;3.30;3.00;;;;;;;;;;5059648;28;20189;-79
2023/12/19 11:26:17;;;;;;;2.85;2.65;;;;;;;;;;5060005;28;20228;-80
2023/12/19 11:28:45;;;;;;;3.42;3.13;;;;;;;;;;5059814;28;20662;-78
2023/12/19 11:31:33;;;;;;;2.80;2.60;;;;;;;;;;5077347;28;20271;-78
2023/12/19 11:34:23;;;;;;;4.47;3.13;;;;;;;;;;5067781;28;20256;-79
2023/12/19 11:37:04;;;;;;;2.40;2.20;;;;;;;;;;5059456;28;20232;-80
2023/12/19 11:39:33;;;;;;;2.20;2.10;;;;;;;;;;5059673;28;20627;-79
2023/12/19 11:42:01;;;;;;;3.17;2.80;;;;;;;;;;5060044;28;20229;-79
2023/12/19 11:44:35;;;;;;;2.60;2.40;;;;;;;;;;5059551;28;20229;-79
2023/12/19 11:47:15;;;;;;;2.53;2.33;;;;;;;;;;5059610;28;20752;-79
2023/12/19 11:49:44;;;;;;;3.00;2.78;;;;;;;;;;5059668;28;20190;-78
2023/12/19 11:52:32;;;;;;;2.67;2.38;;;;;;;;;;5058961;28;20685;-79
2023/12/19 11:55:00;;;;;;;2.45;2.25;;;;;;;;;;5059134;28;20206;-78
2023/12/19 11:57:28;;;;;;;2.85;2.65;;;;;;;;;;5058692;28;20290;-79
2023/12/19 11:59:55;;;;;;;2.60;2.40;;;;;;;;;;5059829;28;20205;-77
2023/12/19 12:02:31;;;;;;;2.85;2.58;;;;;;;;;;5059027;28;20222;-79
2023/12/19 12:05:09;;;;;;;2.70;2.50;;;;;;;;;;5059201;28;20288;-77
2023/12/19 12:07:42;;;;;;;2.35;2.22;;;;;;;;;;5058860;28;20377;-78
2023/12/19 12:10:11;;;;;;;2.58;2.22;;;;;;;;;;5059681;28;20604;-77
2023/12/19 12:12:38;;;;;;;2.35;2.15;;;;;;;;;;5059077;28;20202;-78
2023/12/19 12:15:08;;;;;;;2.20;2.00;;;;;;;;;;5059065;28;20197;-77
2023/12/19 12:17:36;;;;;;;2.58;2.38;;;;;;;;;;5059961;28;20313;-79
2023/12/19 12:20:06;;;;;;;2.50;2.30;;;;;;;;;;5059266;28;20638;-78
2023/12/19 12:22:34;;;;;;;4.45;3.05;;;;;;;;;;5059145;28;20225;-78
2023/12/19 12:25:02;;;;;;;2.70;2.15;;;;;;;;;;5059577;28;20197;-79
2023/12/19 12:27:30;;;;;;;1.98;1.88;;;;;;;;;;5059515;28;20693;-79
2023/12/19 12:30:00;;;;;;;4.63;2.60;;;;;;;;;;5059429;28;20212;-78
2023/12/19 12:32:27;;;;;;;3.13;2.80;;;;;;;;;;5059009;28;20209;-79
2023/12/19 12:34:55;;;;;;;2.00;1.90;;;;;;;;;;5058879;28;20275;-79
2023/12/19 12:37:24;;;;;;;3.50;2.60;;;;;;;;;;5059375;28;20653;-78
2023/12/19 12:39:51;;;;;;;3.17;2.88;;;;;;;;;;5060923;28;20264;-78
2023/12/19 12:42:23;;;;;;;2.30;2.10;;;;;;;;;;5063007;28;20222;-77
2023/12/19 12:45:01;;;;;;;2.50;2.30;;;;;;;;;;5063266;28;20187;-78
2023/12/19 12:47:29;;;;;;;3.08;2.78;;;;;;;;;;5063202;28;20228;-79
2023/12/19 12:50:03;;;;;;;2.97;2.67;;;;;;;;;;5062815;28;20205;-78
2023/12/19 12:52:32;;;;;;;2.70;2.50;;;;;;;;;;5063201;28;20640;-79
2023/12/19 12:55:03;;;;;;;3.08;2.80;;;;;;;;;;5063196;28;20662;-78
2023/12/19 12:57:32;;;;;;;3.30;2.85;;;;;;;;;;5062612;28;20219;-78
2023/12/19 13:00:00;;;;;;;3.13;2.83;;;;;;;;;;5063355;28;20288;-78
2023/12/19 13:02:29;;;;;;;2.67;2.47;;;;;;;;;;5062587;28;20792;-78
2023/12/19 13:04:57;;;;;;;3.67;3.38;;;;;;;;;;5063363;28;20206;-78
2023/12/19 13:07:24;;;;;;;2.95;2.65;;;;;;;;;;5061690;28;20236;-77
2023/12/19 13:09:53;;;;;;;2.20;2.00;;;;;;;;;;5062611;28;20288;-77
2023/12/19 13:12:20;;;;;;;2.50;2.13;;;;;;;;;;5062335;28;20230;-77
2023/12/19 13:14:48;;;;;;;3.15;2.35;;;;;;;;;;5062494;28;20288;-79
2023/12/19 13:17:15;;;;;;;2.70;2.50;;;;;;;;;;5061769;28;20248;-77
2023/12/19 13:19:43;;;;;;;3.38;2.40;;;;;;;;;;5062232;28;20208;-79
2023/12/19 13:22:10;;;;;;;2.33;2.13;;;;;;;;;;5062194;28;20225;-78
2023/12/19 13:24:38;;;;;;;2.83;2.63;;;;;;;;;;5062982;28;20297;-79
2023/12/19 13:27:07;;;;;;;3.05;2.72;;;;;;;;;;5061840;28;20226;-79
2023/12/19 13:29:34;;;;;;;2.60;2.40;;;;;;;;;;5062200;28;20202;-78
2023/12/19 13:32:03;;;;;;;2.65;2.28;;;;;;;;;;5061733;28;20288;-78
2023/12/19 13:34:31;;;;;;;2.95;2.70;;;;;;;;;;5062583;28;20208;-77
2023/12/19 13:36:58;;;;;;;3.20;2.33;;;;;;;;;;5062643;28;20741;-77
2023/12/19 13:39:25;;;;;;;3.13;2.83;;;;;;;;;;5062355;28;20197;-79
2023/12/19 13:41:57;;;;;;;3.90;3.13;;;;;;;;;;5061295;28;20224;-78
2023/12/19 13:44:25;;;;;;;3.40;3.10;;;;;;;;;;5061620;28;20194;-79
2023/12/19 13:46:53;;;;;;;4.05;3.50;;;;;;;;;;5062333;28;20228;-79
2023/12/19 13:49:20;;;;;;;3.58;3.28;;;;;;;;;;5061654;28;20205;-79
2023/12/19 13:51:48;;;;;;;2.58;2.35;;;;;;;;;;5060893;28;20205;-78
2023/12/19 13:54:15;;;;;;;2.42;2.08;;;;;;;;;;5061573;28;20204;-78
2023/12/19 13:56:43;;;;;;;2.60;2.40;;;;;;;;;;5061368;28;20222;-78
2023/12/19 13:59:11;;;;;;;3.17;2.78;;;;;;;;;;5061527;28;20229;-79
2023/12/19 14:01:39;;;;;;;2.25;2.03;;;;;;;;;;5060872;28;20312;-78
2023/12/19 14:04:07;;;;;;;2.80;2.05;;;;;;;;;;5061252;28;20217;-78
2023/12/19 14:06:35;;;;;;;2.40;2.20;;;;;;;;;;5060526;28;20579;-78
2023/12/19 14:09:02;;;;;;;2.53;2.30;;;;;;;;;;5060545;28;20201;-80
2023/12/19 14:11:30;;;;;;;2.58;2.03;;;;;;;;;;5060361;28;20654;-79
2023/12/19 14:13:57;;;;;;;2.22;2.03;;;;;;;;;;5060635;28;20206;-80
2023/12/19 14:16:26;;;;;;;2.72;2.08;;;;;;;;;;5059592;28;20216;-76
2023/12/19 14:18:54;;;;;;;2.85;2.65;;;;;;;;;;5060476;28;20212;-79
2023/12/19 14:21:22;;;;;;;2.63;2.42;;;;;;;;;;5060949;28;20208;-79
2023/12/19 14:23:49;;;;;;;4.57;2.08;;;;;;;;;;5060600;28;20316;-78
2023/12/19 14:26:17;;;;;;;2.78;2.55;;;;;;;;;;5060624;28;20206;-77
2023/12/19 14:28:45;;;;;;;2.55;2.17;;;;;;;;;;5060870;28;20206;-78
2023/12/19 14:31:14;;;;;;;2.20;1.98;;;;;;;;;;5060649;28;20700;-77
2023/12/19 14:33:42;;;;;;;2.50;2.22;;;;;;;;;;5060086;28;20567;-80
2023/12/19 14:36:11;;;;;;;2.60;2.40;;;;;;;;;;5060788;28;20205;-77
2023/12/19 14:38:40;;;;;;;1.67;1.58;;;;;;;;;;5062417;28;20222;-78
2023/12/19 14:41:07;;;;;;;2.42;2.22;;;;;;;;;;5060838;28;20205;-77
2023/12/19 14:43:35;;;;;;;2.38;2.17;;;;;;;;;;5060474;28;20698;-79
2023/12/19 14:46:03;;;;;;;2.30;2.10;;;;;;;;;;5060362;28;20202;-79